• Join FlightAware (Why Join?)
  • Login
  • US Flag 
10:50AM EDT


 

Airport Tracker/Info


-or-


 

Live Flight TrackerFlight Track Log ✈ ZS-SNC ✈ 15-Apr-2013 ✈ FAOR / JNB - EDDF / FRA

Flight Track Log - Related Links

Times and Time Zones

All times are in EDT time to prevent confusion due to time zone crossing. See the ZS-SNC flight status page for this flight to view local times or setup timezone preferences in your user account.

Time Position Orientation Groundspeed Altitude Reporting Facility
EDT Latitude Longitude Course Direction KTS MPH feet Rate Location/Type
01:57PM -26.1470 28.2340 193° South 193 222 5,600  Level FlightAware
01:57PM -26.1580 28.2310 194° South 186 214 6,000 1,680 Climbing FlightAware
01:57PM -26.1690 28.2270 198° South 189 217 6,300 1,440 Climbing FlightAware
01:58PM -26.1940 28.2190 196° South 189 217 7,100 1,080 Climbing FlightAware
01:58PM -26.2250 28.2060 201° Southwest 206 237 7,500 600 Climbing FlightAware
01:59PM -26.2340 28.1890 239° Southwest 221 254 7,600 720 Climbing FlightAware
01:59PM -26.2350 28.1780 264° West 229 264 7,800 960 Climbing FlightAware
01:59PM -26.2280 28.1580 291° West 240 276 8,100 1,020 Climbing FlightAware
01:59PM -26.2150 28.1490 328° Northwest 243 280 8,400 900 Climbing FlightAware
02:00PM -26.1800 28.1440 353° North 256 295 8,800 840 Climbing FlightAware
02:00PM -26.1500 28.1400 353° North 272 313 9,200 960 Climbing FlightAware
02:01PM -26.1080 28.1340 353° North 290 334 9,700 960 Climbing FlightAware
02:02PM -26.0440 28.1240 352° North 323 372 10,400 840 Climbing FlightAware
02:02PM -25.9720 28.1130 352° North 363 418 11,000 840 Climbing FlightAware
02:03PM -25.9040 28.1020 352° North 393 452 11,600 1,500 Climbing FlightAware
02:04PM -25.8180 28.0860 350° North 404 465 13,200 1,920 Climbing FlightAware
02:04PM -25.7450 28.0730 351° North 411 473 14,400 1,800 Climbing FlightAware
02:05PM -25.6610 28.0580 351° North 419 482 15,800 1,740 Climbing FlightAware
02:06PM -25.5820 28.0440 351° North 427 491 16,900 1,500 Climbing FlightAware
02:06PM -25.5210 28.0330 351° North 434 499 17,600 1,500 Climbing FlightAware
02:07PM -25.4420 28.0190 351° North 439 505 18,700 1,500 Climbing FlightAware
02:08PM -25.3610 28.0040 351° North 446 513 19,600 1,440 Climbing FlightAware
02:08PM -25.2880 27.9910 351° North 451 519 20,500 1,560 Climbing FlightAware
02:09PM -25.2320 27.9810 351° North 450 518 21,300 1,500 Climbing FlightAware
02:09PM -25.1440 27.9660 351° North 455 524 22,300 1,320 Climbing FlightAware
02:10PM -25.0490 27.9490 351° North 464 534 23,200 1,080 Climbing FlightAware
02:11PM -24.9620 27.9340 351° North 473 544 23,900 1,200 Climbing FlightAware
02:12PM -24.8680 27.9170 351° North 476 548 24,900 1,320 Climbing FlightAware
02:12PM -24.7780 27.9010 351° North 479 551 25,800 1,080 Climbing FlightAware
02:13PM -24.6890 27.8850 351° North 486 559 26,400 900 Climbing FlightAware
02:14PM -24.5940 27.8690 351° North 493 567 27,100 780 Climbing FlightAware
02:14PM -24.5140 27.8550 351° North 500 575 27,500 840 Climbing FlightAware
02:15PM -24.4330 27.8400 350° North 504 580 28,100 1,080 Climbing FlightAware
02:15PM -24.3680 27.8290 351° North 504 580 28,700 1,440 Climbing FlightAware
02:16PM -24.2550 27.8090 351° North 500 575 29,800 1,380 Climbing FlightAware
02:17PM -24.1620 27.7930 351° North 497 572 30,600 1,200 Climbing FlightAware
02:17PM -24.0720 27.7770 351° North 495 570 31,400 1,200 Climbing FlightAware
02:18PM -23.9630 27.7580 351° North 488 562 32,400 1,200 Climbing FlightAware
02:19PM -23.8610 27.7400 351° North 481 554 33,300 840 Climbing FlightAware
02:20PM -23.7800 27.7260 351° North 484 557 33,600 600 Climbing FlightAware
02:20PM -23.6870 27.7100 351° North 483 556 34,100 720 Climbing FlightAware
02:21PM -23.5880 27.6930 351° North 479 551 34,700 540 Climbing FlightAware
02:22PM -23.5040 27.6780 351° North 478 550 34,900 120 Climbing FlightAware
02:22PM -23.4300 27.6630 349° North 478 550 34,900  Level FlightAware
02:23PM -23.3560 27.6490 350° North 478 550 34,900  Level FlightAware
02:24PM -23.2630 27.6310 350° North 478 550 34,900  Level FlightAware
02:25PM -23.1890 27.6170 350° North 478 550 34,900  Level FlightAware
02:25PM -23.1150 27.6030 350° North 478 550 34,900  Level FlightAware
02:26PM -23.0410 27.5890 350° North 478 550 34,900  Level FlightAware
02:26PM -22.9860 27.5780 350° North 478 550 34,900  Level FlightAware
02:27PM -22.9110 27.5640 350° North 478 550 34,900  Level FlightAware
02:28PM -22.8370 27.5500 350° North 478 550 34,900  Level FlightAware
02:29PM -22.7450 27.5320 350° North 478 550 34,900  Level FlightAware
02:29PM -22.6710 27.5180 350° North 478 550 34,900  Level FlightAware
02:30PM -22.6150 27.5070 350° North 478 550 34,900  Level FlightAware
02:30PM -22.5410 27.4930 350° North 478 550 34,900  Level FlightAware
02:31PM -22.4670 27.4790 350° North 478 550 34,900  Level FlightAware
02:34PM -22.1605 27.4056 348° North  Level Estimated
02:35PM -22.0362 27.3760 348° North  Level Estimated
02:36PM -21.9119 27.3464 348° North  Level Estimated
02:37PM -21.7877 27.3168 348° North  Level Estimated
02:38PM -21.6634 27.2873 348° North  Level Estimated
02:39PM -21.5391 27.2579 348° North  Level Estimated
02:40PM -21.4148 27.2285 348° North  Level Estimated
02:41PM -21.2905 27.1991 348° North  Level Estimated
02:42PM -21.1662 27.1698 348° North  Level Estimated
02:43PM -21.0419 27.1406 348° North  Level Estimated
02:44PM -20.9175 27.1114 348° North  Level Estimated
02:45PM -20.7932 27.0822 348° North  Level Estimated
02:46PM -20.6689 27.0531 348° North  Level Estimated
02:47PM -20.5446 27.0241 348° North  Level Estimated
02:48PM -20.4202 26.9951 348° North  Level Estimated
02:49PM -20.2959 26.9661 348° North  Level Estimated
02:50PM -20.1716 26.9372 348° North  Level Estimated
02:51PM -20.0472 26.9083 348° North  Level Estimated
02:52PM -19.9228 26.8795 348° North  Level Estimated
02:53PM -19.7985 26.8507 348° North  Level Estimated
02:54PM -19.6741 26.8220 348° North  Level Estimated
02:55PM -19.5498 26.7933 348° North  Level Estimated
02:56PM -19.4254 26.7647 348° North  Level Estimated
02:57PM -19.3010 26.7361 348° North  Level Estimated
02:58PM -19.1766 26.7075 348° North  Level Estimated
02:59PM -19.0522 26.6790 348° North  Level Estimated
03:00PM -18.9279 26.6505 348° North  Level Estimated
03:01PM -18.8035 26.6221 348° North  Level Estimated
03:02PM -18.6791 26.5937 348° North  Level Estimated
03:03PM -18.5547 26.5654 348° North  Level Estimated
03:04PM -18.4303 26.5371 348° North  Level Estimated
03:05PM -18.3058 26.5088 348° North  Level Estimated
03:06PM -18.1814 26.4806 348° North  Level Estimated
03:07PM -18.0570 26.4524 348° North  Level Estimated
03:08PM -17.9326 26.4243 348° North  Level Estimated
03:09PM -17.8081 26.3962 348° North  Level Estimated
03:10PM -17.6837 26.3681 348° North  Level Estimated
03:11PM -17.5593 26.3401 348° North  Level Estimated
03:12PM -17.4348 26.3121 348° North  Level Estimated
03:13PM -17.3104 26.2842 348° North  Level Estimated
03:14PM -17.1859 26.2563 348° North  Level Estimated
03:15PM -17.0615 26.2284 348° North  Level Estimated
03:16PM -16.9370 26.2006 348° North  Level Estimated
03:17PM -16.8126 26.1728 348° North  Level Estimated
03:18PM -16.6881 26.1450 348° North  Level Estimated
03:19PM -16.5637 26.1173 348° North  Level Estimated
03:20PM -16.4392 26.0896 348° North  Level Estimated
03:21PM -16.3147 26.0619 348° North  Level Estimated
03:22PM -16.1902 26.0343 348° North  Level Estimated
03:23PM -16.0658 26.0067 348° North  Level Estimated
03:24PM -15.9413 25.9792 348° North  Level Estimated
03:25PM -15.8168 25.9517 348° North  Level Estimated
03:26PM -15.6923 25.9242 348° North  Level Estimated
03:27PM -15.5678 25.8967 348° North  Level Estimated
03:28PM -15.4433 25.8693 348° North  Level Estimated
03:29PM -15.3188 25.8419 348° North  Level Estimated
03:30PM -15.1943 25.8146 348° North  Level Estimated
03:31PM -15.0698 25.7873 348° North  Level Estimated
03:32PM -14.9453 25.7600 348° North  Level Estimated
03:33PM -14.8208 25.7327 348° North  Level Estimated
03:34PM -14.6962 25.7055 348° North  Level Estimated
03:35PM -14.5717 25.6783 348° North  Level Estimated
03:36PM -14.4472 25.6512 348° North  Level Estimated
03:37PM -14.3227 25.6241 348° North  Level Estimated
03:38PM -14.1981 25.5970 348° North  Level Estimated
03:39PM -14.0736 25.5699 348° North  Level Estimated
03:40PM -13.9491 25.5428 348° North  Level Estimated
03:41PM -13.8245 25.5158 348° North  Level Estimated
03:42PM -13.7000 25.4888 348° North  Level Estimated
03:43PM -13.5754 25.4619 348° North  Level Estimated
03:44PM -13.4509 25.4350 348° North  Level Estimated
03:45PM -13.3264 25.4081 348° North  Level Estimated
03:46PM -13.2018 25.3812 348° North  Level Estimated
03:47PM -13.0772 25.3544 348° North  Level Estimated
03:48PM -12.9527 25.3276 348° North  Level Estimated
03:49PM -12.8281 25.3008 348° North  Level Estimated
03:50PM -12.7036 25.2740 348° North  Level Estimated
03:51PM -12.5790 25.2473 348° North  Level Estimated
03:52PM -12.4544 25.2206 348° North  Level Estimated
03:53PM -12.3299 25.1939 348° North  Level Estimated
03:54PM -12.2053 25.1672 348° North  Level Estimated
03:55PM -12.0807 25.1406 348° North  Level Estimated
03:56PM -11.9561 25.1140 348° North  Level Estimated
03:57PM -11.8315 25.0874 348° North  Level Estimated
03:58PM -11.7069 25.0608 348° North  Level Estimated
03:59PM -11.5823 25.0343 348° North  Level Estimated
04:00PM -11.4578 25.0078 348° North  Level Estimated
04:01PM -11.3332 24.9813 348° North  Level Estimated
04:02PM -11.2086 24.9548 348° North  Level Estimated
04:03PM -11.0840 24.9284 348° North  Level Estimated
04:04PM -10.9594 24.9020 348° North  Level Estimated
04:05PM -10.8348 24.8756 348° North  Level Estimated
04:06PM -10.7102 24.8492 348° North  Level Estimated
04:07PM -10.5856 24.8228 348° North  Level Estimated
04:08PM -10.4609 24.7965 348° North  Level Estimated
04:09PM -10.3363 24.7702 348° North  Level Estimated
04:10PM -10.2117 24.7439 348° North  Level Estimated
04:11PM -10.0871 24.7176 348° North  Level Estimated
04:12PM -9.9625 24.6914 348° North  Level Estimated
04:13PM -9.8379 24.6651 348° North  Level Estimated
04:14PM -9.7133 24.6389 348° North  Level Estimated
04:15PM -9.5886 24.6127 348° North  Level Estimated
04:16PM -9.4640 24.5866 348° North  Level Estimated
04:17PM -9.3394 24.5604 348° North  Level Estimated
04:18PM -9.2147 24.5343 348° North  Level Estimated
04:19PM -9.0901 24.5082 348° North  Level Estimated
04:20PM -8.9655 24.4821 348° North  Level Estimated
04:21PM -8.8408 24.4560 348° North  Level Estimated
04:22PM -8.7162 24.4299 348° North  Level Estimated
04:23PM -8.5916 24.4039 348° North  Level Estimated
04:24PM -8.4669 24.3779 348° North  Level Estimated
04:25PM -8.3423 24.3519 348° North  Level Estimated
04:26PM -8.2177 24.3259 348° North  Level Estimated
04:27PM -8.0930 24.2999 348° North  Level Estimated
04:28PM -7.9683 24.2739 348° North  Level Estimated
04:29PM -7.8437 24.2480 348° North  Level Estimated
04:30PM -7.7190 24.2220 348° North  Level Estimated
04:31PM -7.5944 24.1961 348° North  Level Estimated
04:32PM -7.4697 24.1702 348° North  Level Estimated
04:33PM -7.3451 24.1443 348° North  Level Estimated
04:34PM -7.2204 24.1185 348° North  Level Estimated
04:35PM -7.0958 24.0926 348° North  Level Estimated
04:36PM -6.9711 24.0668 348° North  Level Estimated
04:37PM -6.8465 24.0409 348° North  Level Estimated
04:38PM -6.7218 24.0151 348° North  Level Estimated
04:39PM -6.5971 23.9893 348° North  Level Estimated
04:40PM -6.4725 23.9635 348° North  Level Estimated
04:41PM -6.3478 23.9377 348° North  Level Estimated
04:42PM -6.2231 23.9120 348° North  Level Estimated
04:43PM -6.0985 23.8862 348° North  Level Estimated
04:44PM -5.9738 23.8605 348° North  Level Estimated
04:45PM -5.8491 23.8348 348° North  Level Estimated
04:46PM -5.7245 23.8090 348° North  Level Estimated
04:47PM -5.5998 23.7833 348° North  Level Estimated
04:48PM -5.4751 23.7577 348° North  Level Estimated
04:49PM -5.3504 23.7320 348° North  Level Estimated
04:50PM -5.2258 23.7063 348° North  Level Estimated
04:51PM -5.1011 23.6806 348° North  Level Estimated
04:52PM -4.9764 23.6550 348° North  Level Estimated
04:53PM -4.8517 23.6294 348° North  Level Estimated
04:54PM -4.7270 23.6037 348° North  Level Estimated
04:55PM -4.6024 23.5781 348° North  Level Estimated
04:56PM -4.4777 23.5525 348° North  Level Estimated
04:57PM -4.3530 23.5269 348° North  Level Estimated
04:58PM -4.2283 23.5013 348° North  Level Estimated
04:59PM -4.1036 23.4757 348° North  Level Estimated
05:00PM -3.9790 23.4501 348° North  Level Estimated
05:01PM -3.8543 23.4245 348° North  Level Estimated
05:02PM -3.7296 23.3990 348° North  Level Estimated
05:03PM -3.6049 23.3734 348° North  Level Estimated
05:04PM -3.4802 23.3479 348° North  Level Estimated
05:05PM -3.3555 23.3223 348° North  Level Estimated
05:06PM -3.2308 23.2968 348° North  Level Estimated
05:07PM -3.1061 23.2712 348° North  Level Estimated
05:08PM -2.9814 23.2457 348° North  Level Estimated
05:09PM -2.8567 23.2202 348° North  Level Estimated
05:10PM -2.7320 23.1947 348° North  Level Estimated
05:11PM -2.6074 23.1691 348° North  Level Estimated
05:12PM -2.4827 23.1436 348° North  Level Estimated
05:13PM -2.3580 23.1181 348° North  Level Estimated
05:14PM -2.2333 23.0926 348° North  Level Estimated
05:15PM -2.1086 23.0672 348° North  Level Estimated
05:16PM -1.9839 23.0417 348° North  Level Estimated
05:17PM -1.8592 23.0162 348° North  Level Estimated
05:18PM -1.7345 22.9907 348° North  Level Estimated
05:19PM -1.6098 22.9652 348° North  Level Estimated
05:20PM -1.4851 22.9398 348° North  Level Estimated
05:21PM -1.3604 22.9143 348° North  Level Estimated
05:22PM -1.2357 22.8888 348° North  Level Estimated
05:23PM -1.1110 22.8633 348° North  Level Estimated
05:24PM -0.9863 22.8379 348° North  Level Estimated
05:25PM -0.8616 22.8124 348° North  Level Estimated
05:26PM -0.7369 22.7870 348° North  Level Estimated
05:27PM -0.6122 22.7615 348° North  Level Estimated
05:28PM -0.4875 22.7360 348° North  Level Estimated
05:29PM -0.3628 22.7106 348° North  Level Estimated
05:30PM -0.2381 22.6851 348° North  Level Estimated
05:31PM -0.1134 22.6597 348° North  Level Estimated
05:32PM 0.0113 22.6342 348° North  Level Estimated
05:33PM 0.1360 22.6088 348° North  Level Estimated
05:34PM 0.2607 22.5833 348° North  Level Estimated
05:35PM 0.3854 22.5578 348° North  Level Estimated
05:36PM 0.5101 22.5324 348° North  Level Estimated
05:37PM 0.6348 22.5069 348° North  Level Estimated
05:38PM 0.7595 22.4815 348° North  Level Estimated
05:39PM 0.8842 22.4560 348° North  Level Estimated
05:40PM 1.0089 22.4305 348° North  Level Estimated
05:41PM 1.1336 22.4051 348° North  Level Estimated
05:42PM 1.2583 22.3796 348° North  Level Estimated
05:43PM 1.3830 22.3541 348° North  Level Estimated
05:44PM 1.5077 22.3287 348° North  Level Estimated
05:45PM 1.6324 22.3032 348° North  Level Estimated
05:46PM 1.7571 22.2777 348° North  Level Estimated
05:47PM 1.8818 22.2522 348° North  Level Estimated
05:48PM 2.0065 22.2268 348° North  Level Estimated
05:49PM 2.1312 22.2013 348° North  Level Estimated
05:50PM 2.2559 22.1758 348° North  Level Estimated
05:51PM 2.3806 22.1503 348° North  Level Estimated
05:52PM 2.5053 22.1248 348° North  Level Estimated
05:53PM 2.6300 22.0993 348° North  Level Estimated
05:54PM 2.7546 22.0738 348° North  Level Estimated
05:55PM 2.8793 22.0482 348° North  Level Estimated
05:56PM 3.0040 22.0227 348° North  Level Estimated
05:57PM 3.1287 21.9972 348° North  Level Estimated
05:58PM 3.2534 21.9717 348° North  Level Estimated
05:59PM 3.3781 21.9461 348° North  Level Estimated
06:00PM 3.5028 21.9206 348° North  Level Estimated
06:01PM 3.6275 21.8950 348° North  Level Estimated
06:02PM 3.7522 21.8695 348° North  Level Estimated
06:03PM 3.8768 21.8439 348° North  Level Estimated
06:04PM 4.0015 21.8183 348° North  Level Estimated
06:05PM 4.1262 21.7927 348° North  Level Estimated
06:06PM 4.2509 21.7671 348° North  Level Estimated
06:07PM 4.3756 21.7415 348° North  Level Estimated
06:08PM 4.5003 21.7159 348° North  Level Estimated
06:09PM 4.6249 21.6903 348° North  Level Estimated
06:10PM 4.7496 21.6647 348° North  Level Estimated
06:11PM 4.8743 21.6390 348° North  Level Estimated
06:12PM 4.9990 21.6134 348° North  Level Estimated
06:13PM 5.1237 21.5877 348° North  Level Estimated
06:14PM 5.2484 21.5621 348° North  Level Estimated
06:15PM 5.3730 21.5364 348° North  Level Estimated
06:16PM 5.4977 21.5107 348° North  Level Estimated
06:17PM 5.6224 21.4850 348° North  Level Estimated
06:18PM 5.7470 21.4593 348° North  Level Estimated
06:19PM 5.8717 21.4336 348° North  Level Estimated
06:20PM 5.9964 21.4079 348° North  Level Estimated
06:21PM 6.1210 21.3821 348° North  Level Estimated
06:22PM 6.2457 21.3564 348° North  Level Estimated
06:23PM 6.3704 21.3306 348° North  Level Estimated
06:24PM 6.4951 21.3048 348° North  Level Estimated
06:25PM 6.6197 21.2790 348° North  Level Estimated
06:26PM 6.7444 21.2532 348° North  Level Estimated
06:27PM 6.8690 21.2274 348° North  Level Estimated
06:28PM 6.9937 21.2016 348° North  Level Estimated
06:29PM 7.1184 21.1758 348° North  Level Estimated
06:30PM 7.2430 21.1499 348° North  Level Estimated
06:31PM 7.3677 21.1240 348° North  Level Estimated
06:32PM 7.4923 21.0981 348° North  Level Estimated
06:33PM 7.6170 21.0722 348° North  Level Estimated
06:34PM 7.7416 21.0463 348° North  Level Estimated
06:35PM 7.8663 21.0204 348° North  Level Estimated
06:36PM 7.9909 20.9944 348° North  Level Estimated
06:37PM 8.1156 20.9685 348° North  Level Estimated
06:38PM 8.2402 20.9425 348° North  Level Estimated
06:39PM 8.3649 20.9165 348° North  Level Estimated
06:40PM 8.4895 20.8905 348° North  Level Estimated
06:41PM 8.6141 20.8645 348° North  Level Estimated
06:42PM 8.7388 20.8384 348° North  Level Estimated
06:43PM 8.8634 20.8123 348° North  Level Estimated
06:44PM 8.9881 20.7862 348° North  Level Estimated
06:45PM 9.1127 20.7602 348° North  Level Estimated
06:46PM 9.2373 20.7340 348° North  Level Estimated
06:47PM 9.3619 20.7079 348° North  Level Estimated
06:48PM 9.4866 20.6817 348° North  Level Estimated
06:49PM 9.6112 20.6556 348° North  Level Estimated
06:50PM 9.7358 20.6294 348° North  Level Estimated
06:51PM 9.8604 20.6031 348° North  Level Estimated
06:52PM 9.9851 20.5769 348° North  Level Estimated
06:53PM 10.1097 20.5507 348° North  Level Estimated
06:54PM 10.2343 20.5244 348° North  Level Estimated
06:55PM 10.3589 20.4981 348° North  Level Estimated
06:56PM 10.4835 20.4718 348° North  Level Estimated
06:57PM 10.6081 20.4454 348° North  Level Estimated
06:58PM 10.7327 20.4191 348° North  Level Estimated
06:59PM 10.8573 20.3927 348° North  Level Estimated
07:00PM 10.9819 20.3663 348° North  Level Estimated
07:01PM 11.1065 20.3399 348° North  Level Estimated
07:02PM 11.2311 20.3134 348° North  Level Estimated
07:03PM 11.3557 20.2870 348° North  Level Estimated
07:04PM 11.4803 20.2605 348° North  Level Estimated
07:05PM 11.6049 20.2339 348° North  Level Estimated
07:06PM 11.7295 20.2074 348° North  Level Estimated
07:07PM 11.8541 20.1808 348° North  Level Estimated
07:08PM 11.9787 20.1543 348° North  Level Estimated
07:09PM 12.1032 20.1276 348° North  Level Estimated
07:10PM 12.2278 20.1010 348° North  Level Estimated
07:11PM 12.3524 20.0744 348° North  Level Estimated
07:12PM 12.4770 20.0477 348° North  Level Estimated
07:13PM 12.6015 20.0210 348° North  Level Estimated
07:14PM 12.7261 19.9942 348° North  Level Estimated
07:15PM 12.8507 19.9674 348° North  Level Estimated
07:16PM 12.9752 19.9407 348° North  Level Estimated
07:17PM 13.0998 19.9138 348° North  Level Estimated
07:18PM 13.2243 19.8870 348° North  Level Estimated
07:19PM 13.3489 19.8601 348° North  Level Estimated
07:20PM 13.4734 19.8332 348° North  Level Estimated
07:21PM 13.5980 19.8063 348° North  Level Estimated
07:22PM 13.7225 19.7793 348° North  Level Estimated
07:23PM 13.8471 19.7523 348° North  Level Estimated
07:24PM 13.9716 19.7253 348° North  Level Estimated
07:25PM 14.0962 19.6983 348° North  Level Estimated
07:26PM 14.2207 19.6712 348° North  Level Estimated
07:27PM 14.3452 19.6441 348° North  Level Estimated
07:28PM 14.4697 19.6170 348° North  Level Estimated
07:29PM 14.5943 19.5898 348° North  Level Estimated
07:30PM 14.7188 19.5626 348° North  Level Estimated
07:31PM 14.8433 19.5354 348° North  Level Estimated
07:32PM 14.9678 19.5081 348° North  Level Estimated
07:33PM 15.0923 19.4808 348° North  Level Estimated
07:34PM 15.2168 19.4535 348° North  Level Estimated
07:35PM 15.3413 19.4261 348° North  Level Estimated
07:36PM 15.4658 19.3988 348° North  Level Estimated
07:37PM 15.5903 19.3713 348° North  Level Estimated
07:38PM 15.7148 19.3439 348° North  Level Estimated
07:39PM 15.8393 19.3164 348° North  Level Estimated
07:40PM 15.9638 19.2889 348° North  Level Estimated
07:41PM 16.0883 19.2613 348° North  Level Estimated
07:42PM 16.2128 19.2337 348° North  Level Estimated
07:43PM 16.3372 19.2061 348° North  Level Estimated
07:44PM 16.4617 19.1784 348° North  Level Estimated
07:45PM 16.5862 19.1507 348° North  Level Estimated
07:46PM 16.7106 19.1230 348° North  Level Estimated
07:47PM 16.8351 19.0952 348° North  Level Estimated
07:48PM 16.9596 19.0674 348° North  Level Estimated
07:49PM 17.0840 19.0396 348° North  Level Estimated
07:50PM 17.2085 19.0117 348° North  Level Estimated
07:51PM 17.3329 18.9838 348° North  Level Estimated
07:52PM 17.4574 18.9559 348° North  Level Estimated
07:53PM 17.5818 18.9279 348° North  Level Estimated
07:54PM 17.7062 18.8998 348° North  Level Estimated
07:55PM 17.8307 18.8718 348° North  Level Estimated
07:56PM 17.9551 18.8437 348° North  Level Estimated
07:57PM 18.0795 18.8155 348° North  Level Estimated
07:58PM 18.2039 18.7873 348° North  Level Estimated
07:59PM 18.3284 18.7591 348° North  Level Estimated
08:00PM 18.4528 18.7308 348° North  Level Estimated
08:01PM 18.5772 18.7025 348° North  Level Estimated
08:02PM 18.7016 18.6742 348° North  Level Estimated
08:03PM 18.8260 18.6458 348° North  Level Estimated
08:04PM 18.9504 18.6173 348° North  Level Estimated
08:05PM 19.0748 18.5889 348° North  Level Estimated
08:06PM 19.1992 18.5603 348° North  Level Estimated
08:07PM 19.3235 18.5318 348° North  Level Estimated
08:08PM 19.4479 18.5032 348° North  Level Estimated
08:09PM 19.5723 18.4745 348° North  Level Estimated
08:10PM 19.6966 18.4458 348° North  Level Estimated
08:11PM 19.8210 18.4171 348° North  Level Estimated
08:12PM 19.9454 18.3883 348° North  Level Estimated
08:13PM 20.0697 18.3595 348° North  Level Estimated
08:14PM 20.1941 18.3306 348° North  Level Estimated
08:15PM 20.3184 18.3017 348° North  Level Estimated
08:16PM 20.4428 18.2727 348° North  Level Estimated
08:17PM 20.5671 18.2437 348° North  Level Estimated
08:18PM 20.6914 18.2146 348° North  Level Estimated
08:19PM 20.8157 18.1855 348° North  Level Estimated
08:20PM 20.9401 18.1563 348° North  Level Estimated
08:21PM 21.0644 18.1271 348° North  Level Estimated
08:22PM 21.1887 18.0979 348° North  Level Estimated
08:23PM 21.3130 18.0686 348° North  Level Estimated
08:24PM 21.4373 18.0392 348° North  Level Estimated
08:25PM 21.5616 18.0098 348° North  Level Estimated
08:26PM 21.6859 17.9804 348° North  Level Estimated
08:27PM 21.8101 17.9509 348° North  Level Estimated
08:28PM 21.9344 17.9213 348° North  Level Estimated
08:29PM 22.0587 17.8917 348° North  Level Estimated
08:30PM 22.1829 17.8620 348° North  Level Estimated
08:31PM 22.3072 17.8323 348° North  Level Estimated
08:32PM 22.4315 17.8026 348° North  Level Estimated
08:33PM 22.5557 17.7727 348° North  Level Estimated
08:34PM 22.6800 17.7429 347° North  Level Estimated
08:35PM 22.8042 17.7129 347° North  Level Estimated
08:36PM 22.9284 17.6830 347° North  Level Estimated
08:37PM 23.0527 17.6529 347° North  Level Estimated
08:38PM 23.1769 17.6228 347° North  Level Estimated
08:39PM 23.3011 17.5927 347° North  Level Estimated
08:40PM 23.4253 17.5625 347° North  Level Estimated
08:41PM 23.5495 17.5322 347° North  Level Estimated
08:42PM 23.6737 17.5019 347° North  Level Estimated
08:43PM 23.7979 17.4715 347° North  Level Estimated
08:44PM 23.9221 17.4411 347° North  Level Estimated
08:45PM 24.0463 17.4106 347° North  Level Estimated
08:46PM 24.1705 17.3801 347° North  Level Estimated
08:47PM 24.2947 17.3494 347° North  Level Estimated
08:48PM 24.4188 17.3188 347° North  Level Estimated
08:49PM 24.5430 17.2880 347° North  Level Estimated
08:50PM 24.6671 17.2572 347° North  Level Estimated
08:51PM 24.7913 17.2264 347° North  Level Estimated
08:52PM 24.9154 17.1955 347° North  Level Estimated
08:53PM 25.0396 17.1645 347° North  Level Estimated
08:54PM 25.1637 17.1335 347° North  Level Estimated
08:55PM 25.2878 17.1024 347° North  Level Estimated
08:56PM 25.4119 17.0712 347° North  Level Estimated
08:57PM 25.5360 17.0400 347° North  Level Estimated
08:58PM 25.6601 17.0087 347° North  Level Estimated
08:59PM 25.7842 16.9773 347° North  Level Estimated
09:00PM 25.9083 16.9459 347° North  Level Estimated
09:01PM 26.0324 16.9144 347° North  Level Estimated
09:02PM 26.1565 16.8828 347° North  Level Estimated
09:03PM 26.2805 16.8512 347° North  Level Estimated
09:04PM 26.4046 16.8195 347° North  Level Estimated
09:05PM 26.5286 16.7877 347° North  Level Estimated
09:06PM 26.6527 16.7559 347° North  Level Estimated
09:07PM 26.7767 16.7240 347° North  Level Estimated
09:08PM 26.9007 16.6920 347° North  Level Estimated
09:09PM 27.0248 16.6600 347° North  Level Estimated
09:10PM 27.1488 16.6279 347° North  Level Estimated
09:11PM 27.2728 16.5957 347° North  Level Estimated
09:12PM 27.3968 16.5634 347° North  Level Estimated
09:13PM 27.5208 16.5311 347° North  Level Estimated
09:14PM 27.6448 16.4987 347° North  Level Estimated
09:15PM 27.7688 16.4662 347° North  Level Estimated
09:16PM 27.8927 16.4337 347° North  Level Estimated
09:17PM 28.0167 16.4011 347° North  Level Estimated
09:18PM 28.1406 16.3684 347° North  Level Estimated
09:19PM 28.2646 16.3356 347° North  Level Estimated
09:20PM 28.3885 16.3027 347° North  Level Estimated
09:21PM 28.5125 16.2698 347° North  Level Estimated
09:22PM 28.6364 16.2368 347° North  Level Estimated
09:23PM 28.7603 16.2037 347° North  Level Estimated
09:24PM 28.8842 16.1705 347° North  Level Estimated
09:25PM 29.0081 16.1373 347° North  Level Estimated
09:26PM 29.1320 16.1040 347° North  Level Estimated
09:27PM 29.2559 16.0706 347° North  Level Estimated
09:28PM 29.3798 16.0371 347° North  Level Estimated
09:29PM 29.5037 16.0035 347° North  Level Estimated
09:30PM 29.6275 15.9699 347° North  Level Estimated
09:31PM 29.7514 15.9362 347° North  Level Estimated
09:32PM 29.8752 15.9024 347° North  Level Estimated
09:33PM 29.9990 15.8685 347° North  Level Estimated
09:34PM 30.1229 15.8345 347° North  Level Estimated
09:35PM 30.2467 15.8004 347° North  Level Estimated
09:36PM 30.3705 15.7663 347° North  Level Estimated
09:37PM 30.4943 15.7320 347° North  Level Estimated
09:38PM 30.6181 15.6977 347° North  Level Estimated
09:39PM 30.7418 15.6633 347° North  Level Estimated
09:40PM 30.8656 15.6288 347° North  Level Estimated
09:41PM 30.9894 15.5942 347° North  Level Estimated
09:41PM 32.6590 13.4320 347° North 462 532 38,000  Level FlightAware
09:41PM 32.7240 13.4240 354° North 462 532 38,000  Level FlightAware
09:42PM 31.1131 15.5595 347° North  Level Estimated
09:42PM 32.8360 13.4130 355° North 463 533 38,000  Level FlightAware
09:43PM 32.9230 13.4030 354° North 463 533 38,000  Level FlightAware
09:44PM 33.0160 13.3930 355° North 459 528 38,000  Level FlightAware
09:44PM 33.1060 13.3830 355° North 459 528 38,000  Level FlightAware
09:45PM 33.1900 13.3740 355° North 461 531 38,000  Level FlightAware
09:46PM 33.2840 13.3640 355° North 459 528 38,000  Level FlightAware
09:47PM 33.3800 13.3530 355° North 462 532 38,000  Level FlightAware
09:47PM 33.4690 13.3430 355° North 461 531 38,000  Level FlightAware
09:48PM 33.5530 13.3340 355° North 457 526 38,000  Level FlightAware
09:49PM 33.6460 13.3240 355° North 456 525 38,000  Level FlightAware
09:49PM 33.7300 13.3170 356° North 458 527 38,000  Level FlightAware
09:50PM 33.8260 13.3150 359° North 456 525 38,000  Level FlightAware
09:51PM 33.9100 13.3130 359° North 454 522 38,000  Level FlightAware
09:51PM 33.9940 13.3100 358° North 452 520 38,000  Level FlightAware
09:52PM 34.0860 13.3070 358° North 453 521 38,000  Level FlightAware
09:53PM 34.1710 13.3040 358° North 455 524 38,000  Level FlightAware
09:54PM 34.2660 13.3010 359° North 457 526 38,000  Level FlightAware
09:54PM 34.3520 13.2980 358° North 457 526 38,000  Level FlightAware
09:55PM 34.4370 13.2950 358° North 456 525 38,000  Level FlightAware
09:56PM 34.5310 13.2920 358° North 452 520 38,000  Level FlightAware
09:56PM 34.6120 13.2890 358° North 451 519 38,000  Level FlightAware
09:57PM 34.7100 13.2850 358° North 453 521 38,000  Level FlightAware
09:58PM 34.7920 13.2830 359° North 452 520 38,000  Level FlightAware
09:58PM 34.8760 13.2800 358° North 451 519 38,000  Level FlightAware
09:59PM 34.9680 13.2760 358° North 450 518 38,000  Level FlightAware
10:00PM 35.0520 13.2740 359° North 453 521 38,000  Level FlightAware
10:01PM 35.1480 13.2700 358° North 451 519 38,000  Level FlightAware
10:01PM 35.2310 13.2670 358° North 451 519 38,000  Level FlightAware
10:02PM 35.3140 13.2640 358° North 451 519 38,000  Level FlightAware
10:03PM 35.4070 13.2610 358° North 452 520 38,000  Level FlightAware
10:03PM 35.4910 13.2580 358° North 453 521 38,000  Level FlightAware
10:04PM 35.5870 13.2550 359° North 453 521 38,000  Level FlightAware
10:05PM 35.6700 13.2520 358° North 452 520 38,000  Level FlightAware
10:05PM 35.7540 13.2490 358° North 453 521 38,000  Level FlightAware
10:06PM 35.8470 13.2450 358° North 452 520 38,000  Level FlightAware
10:07PM 35.9310 13.2420 358° North 451 519 38,000  Level FlightAware
10:07PM 36.0150 13.2390 358° North 458 527 38,000  Level FlightAware
10:08PM 36.1120 13.2360 359° North 466 536 38,000  Level FlightAware
10:09PM 36.1990 13.2330 358° North 464 534 38,000  Level FlightAware
10:10PM 36.2920 13.2290 358° North 462 532 38,000  Level FlightAware
10:10PM 36.3770 13.2260 358° North 455 524 38,000  Level FlightAware
10:11PM 36.4740 13.2230 359° North 451 519 38,000  Level FlightAware
10:12PM 36.5340 13.2210 358° North 453 521 38,000  Level FlightAware
10:12PM 36.5820 13.2280 North 464 534 38,000  Level FlightAware
10:13PM 36.6670 13.2510 12° North 465 535 38,000  Level FlightAware
10:13PM 36.7630 13.2780 13° North 461 531 38,000  Level FlightAware
10:14PM 36.8470 13.3020 13° North 462 532 38,000  Level FlightAware
10:15PM 36.9300 13.3270 14° North 463 533 38,000  Level FlightAware
10:15PM 37.0240 13.3550 13° North 466 536 38,000  Level FlightAware
10:16PM 37.1090 13.3810 14° North 464 534 38,000  Level FlightAware
10:17PM 37.2010 13.4070 13° North 460 529 38,000  Level FlightAware
10:17PM 37.2230 13.4070 360° North 452 520 38,000  Level FlightAware
10:18PM 37.3140 13.3950 354° North 452 520 38,000  Level FlightAware
10:18PM 37.3980 13.3860 355° North 451 519 38,000  Level FlightAware
10:19PM 37.4970 13.3740 355° North 451 519 38,000  Level FlightAware
10:20PM 37.5800 13.3650 355° North 450 518 38,000  Level FlightAware
10:21PM 37.6640 13.3550 355° North 449 517 38,000  Level FlightAware
10:21PM 37.7550 13.3440 355° North 446 513 38,000  Level FlightAware
10:22PM 37.8370 13.3350 355° North 442 509 38,000  Level FlightAware
10:23PM 37.9170 13.3250 354° North 441 507 38,000  Level FlightAware
10:23PM 38.0110 13.3140 355° North 440 506 38,000  Level FlightAware
10:24PM 38.0940 13.3040 355° North 442 509 38,000  Level FlightAware
10:25PM 38.1830 13.2940 355° North 445 512 38,000  Level FlightAware
10:25PM 38.2660 13.2840 355° North 445 512 38,000  Level FlightAware
10:26PM 38.3590 13.2730 355° North 445 512 38,000  Level FlightAware
10:27PM 38.4430 13.2630 355° North 445 512 38,000  Level FlightAware
10:28PM 38.5250 13.2530 355° North 444 511 38,000  Level FlightAware
10:28PM 38.6090 13.2430 355° North 443 510 38,000  Level FlightAware
10:29PM 38.6840 13.2340 355° North 444 511 38,000  Level FlightAware
10:30PM 38.7770 13.2230 355° North 444 511 38,000  Level FlightAware
10:30PM 38.8710 13.2100 354° North 443 510 38,000  Level FlightAware
10:31PM 38.9520 13.1880 348° North 443 510 38,000  Level FlightAware
10:32PM 39.0300 13.1670 348° North 443 510 38,000  Level FlightAware
10:32PM 39.1200 13.1430 348° North 444 511 38,000  Level FlightAware
10:33PM 39.2010 13.1210 348° North 443 510 38,000  Level FlightAware
10:34PM 39.2700 13.1030 349° North 444 511 38,000  Level FlightAware
10:35PM 39.3730 13.0750 348° North 447 514 38,000  Level FlightAware
10:35PM 39.4790 13.0460 348° North 449 517 38,000  Level FlightAware
10:36PM 39.5750 13.0200 348° North 449 517 38,000  Level FlightAware
10:37PM 39.6550 12.9980 348° North 448 516 38,000  Level FlightAware
10:38PM 39.7630 12.9680 348° North 448 516 38,000  Level FlightAware
10:38PM 39.8120 12.9550 348° North 448 516 38,000  Level FlightAware
10:39PM 39.9010 12.9300 348° North 449 517 38,000  Level FlightAware
10:40PM 39.7790 12.9640 168° South 450 518 38,000  Level FlightAware
10:41PM 40.0940 12.8770 348° North 451 519 38,000  Level FlightAware
10:41PM 40.1560 12.8600 348° North 452 520 38,000  Level FlightAware
10:42PM 40.2680 12.8290 348° North 449 517 38,000  Level FlightAware
10:43PM 40.3320 12.8110 348° North 450 518 38,000  Level FlightAware
10:43PM 40.4060 12.7900 348° North 450 518 38,000  Level FlightAware
10:44PM 40.5090 12.7610 348° North 449 517 38,000  Level FlightAware
10:45PM 40.5950 12.7370 348° North 443 510 38,000  Level FlightAware
10:46PM 40.6980 12.7080 348° North 441 507 38,000  Level FlightAware
10:46PM 40.7920 12.6820 348° North 441 507 38,000  Level FlightAware
10:47PM 40.8790 12.6570 348° North 444 511 38,000  Level FlightAware
10:48PM 40.9870 12.6250 347° North 446 513 38,000  Level FlightAware
10:49PM 41.0700 12.6020 348° North 446 513 38,000  Level FlightAware
10:49PM 41.1540 12.5780 348° North 448 516 38,000  Level FlightAware
10:50PM 41.2630 12.5470 348° North 447 514 38,000  Level FlightAware
10:51PM 41.3590 12.5190 348° North 445 512 38,000  Level FlightAware
10:52PM 41.4300 12.4990 348° North 444 511 38,000  Level FlightAware
10:53PM 41.5360 12.4680 348° North 443 510 38,000  Level FlightAware
10:53PM 41.6160 12.4450 348° North 443 510 38,000  Level FlightAware
10:54PM 41.6920 12.4230 348° North 445 512 38,000  Level FlightAware
10:55PM 41.8010 12.3910 348° North 447 514 38,000  Level FlightAware
10:55PM 41.8820 12.3670 348° North 444 511 38,000  Level FlightAware
10:56PM 41.9730 12.3410 348° North 441 507 38,000  Level FlightAware
10:57PM 42.0570 12.3160 348° North 441 507 38,000  Level FlightAware
10:57PM 42.1250 12.2960 348° North 441 507 38,000  Level FlightAware
10:58PM 42.2280 12.2650 347° North 442 509 38,000  Level FlightAware
10:59PM 42.3100 12.2410 348° North 444 511 38,000  Level FlightAware
10:59PM 42.3890 12.2180 348° North 444 511 38,000  Level FlightAware
11:00PM 42.4730 12.1920 347° North 441 507 38,000  Level FlightAware
11:01PM 42.5640 12.1650 348° North 442 509 38,000  Level FlightAware
11:02PM 42.6560 12.1370 347° North 442 509 38,000  Level FlightAware
11:02PM 42.7440 12.1110 348° North 449 517 38,000  Level FlightAware
11:03PM 42.8240 12.0870 348° North 450 518 38,000  Level FlightAware
11:04PM 42.9180 12.0580 347° North 451 519 38,000  Level FlightAware
11:04PM 42.9970 12.0340 347° North 450 518 38,000  Level FlightAware
11:05PM 43.0890 12.0060 347° North 449 517 38,000  Level FlightAware
11:06PM 43.1720 11.9810 348° North 451 519 38,000  Level FlightAware
11:07PM 43.2620 11.9530 347° North 451 519 38,000  Level FlightAware
11:07PM 43.3440 11.9280 347° North 448 516 38,000  Level FlightAware
11:08PM 43.4250 11.9090 350° North 451 519 38,000  Level FlightAware
11:09PM 43.5210 11.8960 354° North 452 520 38,000  Level FlightAware
11:09PM 43.6040 11.8840 354° North 453 521 38,000  Level FlightAware
11:10PM 43.6970 11.8710 354° North 454 522 38,000  Level FlightAware
11:11PM 43.7800 11.8590 354° North 454 522 38,000  Level FlightAware
11:11PM 43.8640 11.8470 354° North 456 525 38,000  Level FlightAware
11:12PM 43.9570 11.8340 354° North 456 525 38,000  Level FlightAware
11:13PM 44.0380 11.8220 354° North 456 525 38,000  Level FlightAware
11:14PM 44.1350 11.8080 354° North 456 525 38,000  Level FlightAware
11:14PM 44.2200 11.7960 354° North 457 526 38,000  Level FlightAware
11:15PM 44.3020 11.7840 354° North 457 526 38,000  Level FlightAware
11:16PM 44.4020 11.7700 354° North 459 528 38,000  Level FlightAware
11:16PM 44.4850 11.7580 354° North 458 527 38,000  Level FlightAware
11:17PM 44.5790 11.7440 354° North 456 525 38,000  Level FlightAware
11:18PM 44.6630 11.7320 354° North 458 527 38,000  Level FlightAware
11:18PM 44.7470 11.7190 354° North 458 527 38,000  Level FlightAware
11:19PM 44.8400 11.7060 354° North 458 527 38,000  Level FlightAware
11:20PM 44.9250 11.6930 354° North 459 528 38,000  Level FlightAware
11:21PM 45.0200 11.6790 354° North 460 529 38,000  Level FlightAware
11:21PM 45.1050 11.6660 354° North 462 532 38,000  Level FlightAware
11:22PM 45.1840 11.6540 354° North 463 533 38,000  Level FlightAware
11:23PM 45.2850 11.6390 354° North 462 532 38,000  Level FlightAware
11:23PM 45.3720 11.6260 354° North 460 529 38,000  Level FlightAware
11:24PM 45.4560 11.6130 354° North 460 529 38,000  Level FlightAware
11:25PM 45.5520 11.5990 354° North 462 532 38,000  Level FlightAware
11:25PM 45.6370 11.5860 354° North 463 533 38,000  Level FlightAware
11:26PM 45.7180 11.5740 354° North 463 533 38,000  Level FlightAware
11:27PM 45.8150 11.5590 354° North 465 535 38,000  Level FlightAware
11:27PM 45.9020 11.5460 354° North 465 535 38,000  Level FlightAware
11:28PM 46.0010 11.5300 354° North 465 535 38,000  Level FlightAware
11:29PM 46.0820 11.5180 354° North 462 532 38,000  Level FlightAware
11:30PM 46.1800 11.5030 354° North 458 527 38,000  Level FlightAware
11:30PM 46.2650 11.4900 354° North 457 526 38,000  Level FlightAware
11:31PM 46.3420 11.4780 354° North 460 529 38,000  Level FlightAware
11:32PM 46.4430 11.4620 354° North 462 532 38,000  Level FlightAware
11:32PM 46.5360 11.4470 354° North 460 529 38,000  Level FlightAware
11:33PM 46.6230 11.4360 355° North 461 531 38,000  Level FlightAware
11:34PM 46.7190 11.4310 358° North 462 532 38,000  Level FlightAware
11:35PM 46.8060 11.4250 357° North 461 531 38,000  Level FlightAware
11:35PM 46.8900 11.4180 357° North 461 531 38,000  Level FlightAware
11:36PM 46.9810 11.4120 357° North 462 532 38,000  Level FlightAware
11:37PM 47.0670 11.4040 356° North 461 531 38,000  Level FlightAware
11:38PM 47.2400 11.3520 348° North 462 532 38,000  Level FlightAware
11:39PM 47.3240 11.3270 349° North 460 529 38,000  Level FlightAware
11:39PM 47.4180 11.2980 348° North 462 532 38,000  Level FlightAware
11:40PM 47.5030 11.2710 348° North 463 533 38,000 -120 Level FlightAware
11:41PM 47.5960 11.2420 348° North 463 533 37,900 -540 Descending FlightAware
11:42PM 47.6810 11.2160 348° North 458 527 37,300 -1,020 Descending FlightAware
11:42PM 47.7630 11.1900 348° North 457 526 36,600 -1,200 Descending FlightAware
11:43PM 47.8600 11.1590 348° North 464 534 35,600 -1,680 Descending FlightAware
11:44PM 47.9420 11.1330 348° North 463 533 34,300 -1,980 Descending FlightAware
11:44PM 48.0370 11.1030 348° North 460 529 32,800 -1,680 Descending FlightAware
11:45PM 48.1200 11.0770 348° North 461 531 32,000 -600 Descending FlightAware
11:46PM 48.2140 11.0470 348° North 461 531 32,000 -240 Level FlightAware
11:46PM 48.2980 11.0200 348° North 447 514 31,700 -720 Descending FlightAware
11:47PM 48.3790 10.9940 348° North 441 507 31,100 -1,020 Descending FlightAware
11:48PM 48.4690 10.9650 348° North 430 495 30,300 -1,080 Descending FlightAware
11:49PM 48.5450 10.9330 344° North 429 494 29,600 -1,020 Descending FlightAware
11:49PM 48.6020 10.8700 324° Northwest 414 476 29,000 -960 Descending FlightAware
11:50PM 48.6750 10.7860 323° Northwest 407 468 28,300 -1,020 Descending FlightAware
11:51PM 48.7360 10.7140 322° Northwest 409 471 27,600 -1,380 Descending FlightAware
11:51PM 48.8040 10.6340 322° Northwest 395 455 26,400 -1,800 Descending FlightAware
11:52PM 48.8450 10.5860 322° Northwest 394 453 25,400 -1,800 Descending FlightAware
11:53PM 48.9080 10.5110 322° Northwest 397 457 24,000 -2,040 Descending FlightAware
11:53PM 48.9850 10.4190 322° Northwest 390 449 22,200 -2,040 Descending FlightAware
11:54PM 49.0570 10.3330 322° Northwest 386 444 20,500 -1,320 Descending FlightAware
11:55PM 49.1000 10.2810 322° Northwest 373 429 20,000 -360 Descending FlightAware
11:56PM 49.1950 10.1680 322° Northwest 356 410 20,000  Level FlightAware
11:57PM 49.2370 10.1170 322° Northwest 357 411 20,000 -120 Level FlightAware
11:57PM 49.3050 10.0350 322° Northwest 356 410 19,900 -600 Descending FlightAware
11:58PM 49.3630 9.9640 321° Northwest 354 407 19,100 -1,020 Descending FlightAware
11:59PM 49.4150 9.9000 321° Northwest 351 404 18,500 -1,020 Descending FlightAware
12:00AM 49.4730 9.8300 322° Northwest 354 407 17,700 -1,020 Descending FlightAware
12:00AM 49.5240 9.7670 321° Northwest 346 398 17,100 -1,200 Descending FlightAware
12:01AM 49.5740 9.7060 322° Northwest 339 390 16,100 -1,800 Descending FlightAware
12:02AM 49.6300 9.6370 321° Northwest 350 403 14,600 -1,980 Descending FlightAware
12:02AM 49.6810 9.5740 321° Northwest 351 404 13,300 -1,740 Descending FlightAware
12:03AM 49.7350 9.5060 321° Northwest 337 388 12,200 -1,380 Descending FlightAware
12:04AM 49.7850 9.4440 321° Northwest 329 379 11,400 -1,440 Descending FlightAware
12:04AM 49.8320 9.3850 321° Northwest 328 377 10,300 -1,680 Descending FlightAware
12:05AM 49.8680 9.3420 322° Northwest 327 376 9,500 -1,320 Descending FlightAware
12:05AM 49.8970 9.3070 322° Northwest 316 364 9,100 -1,080 Descending FlightAware
12:06AM 49.9170 9.2820 321° Northwest 311 358 8,700 -1,620 Descending FlightAware
12:06AM 49.9620 9.2200 318° Northwest 311 358 7,500 -1,800 Descending FlightAware
12:07AM 49.9780 9.1950 315° West 311 358 7,100 -960 Descending FlightAware
12:07AM 50.0130 9.1390 314° West 6,600 -900 Descending FlightAware
12:08AM 50.0660 9.0540 314° West 5,500 -900 Descending FlightAware
12:09AM 50.1010 8.9960 313° West 268 308 5,100 -1,440 Descending FlightAware
12:09AM 50.1130 8.9600 297° West 233 268 4,000 -1,200 Descending FlightAware
12:10AM 50.1140 8.9000 272° West 223 257 3,900 -240 Descending FlightAware
12:10AM 50.1080 8.8750 249° West 213 245 3,800 -180 Descending FlightAware
12:11AM 50.1000 8.8390 251° West 213 245 3,800 -900 Level FlightAware
12:11AM 50.0870 8.7830 250° West 2,900 -1,140 Descending FlightAware
12:12AM 50.0770 8.7440 248° West 175 201 2,300 -1,020 Descending FlightAware
12:12AM 50.0700 8.7130 251° West 168 193 1,900 -900 Descending FlightAware
12:13AM 50.0630 8.6840 249° West 159 183 1,500 -480 Descending FlightAware
12:13AM 50.0570 8.6570 251° West 159 183 1,500  Level FlightAware
12:16AM 50.0264 8.5431 247° West  Level Estimated
12:17AM 50.0264 8.5431 73° East  Level Estimated
12:18AM 50.0264 8.5431 73° East  Level Estimated
12:19AM 50.0264 8.5431 73° East  Level Estimated
12:20AM 50.0264 8.5431 73° East  Level Estimated
12:21AM 50.0264 8.5431 73° East  Level Estimated
12:22AM 50.0264 8.5431 73° East  Level Estimated
12:23AM 50.0264 8.5431 73° East  Level Estimated
12:24AM 50.0264 8.5431 73° East  Level Estimated
12:25AM 50.0264 8.5431 73° East  Level Estimated
12:26AM 50.0264 8.5431 73° East  Level Estimated
12:27AM 50.0264 8.5431 73° East  Level Estimated